Time;durP1;ratioP1;P1;durP2;ratioP2;P2;SDS_P1;SDS_P2;PMS_P1;PMS_P2;Temp;Humidity;BMP_temperature;BMP_pressure;BME280_temperature;BME280_humidity;BME280_pressure;Samples;Min_cycle;Max_cycle;Signal;HPM_P1;HPM_P2
2022/06/25 00:03:31;;;;;;;4.07;3.57;;;;;;;20.98;75.19;100208.05;739959;1155;115551;-72
2022/06/25 00:18:33;;;;;;;6.83;4.03;;;;;;;20.87;75.72;100219.34;740271;1153;115564;-72
2022/06/25 00:33:35;;;;;;;5.28;3.65;;;;;;;20.72;76.61;100220.36;740239;1155;114834;-72
2022/06/25 00:48:37;;;;;;;4.88;3.73;;;;;;;20.58;77.22;100216.00;740171;1152;116039;-72
2022/06/25 01:03:41;;;;;;;4.20;3.80;;;;;;;20.45;77.68;100217.63;740664;1155;115494;-72
2022/06/25 01:18:44;;;;;;;6.18;4.45;;;;;;;20.18;78.48;100214.07;740364;1153;115488;-73
2022/06/25 01:33:46;;;;;;;4.43;3.88;;;;;;;20.01;78.97;100215.45;740176;1152;115230;-73
2022/06/25 01:48:49;;;;;;;6.10;3.93;;;;;;;19.74;80.13;100216.13;740515;1152;115624;-73
2022/06/25 02:03:51;;;;;;;6.10;4.00;;;;;;;19.49;81.47;100225.59;740523;1153;115499;-72
2022/06/25 02:18:54;;;;;;;5.10;4.15;;;;;;;19.28;83.06;100232.60;742157;1153;114878;-73
2022/06/25 02:33:56;;;;;;;6.33;4.25;;;;;;;19.26;83.75;100226.67;741513;1153;115377;-72
2022/06/25 02:48:58;;;;;;;5.70;3.50;;;;;;;19.15;84.33;100227.19;740048;1153;115793;-72
2022/06/25 03:04:01;;;;;;;4.28;3.75;;;;;;;19.24;83.84;100226.88;740042;1153;115559;-72
2022/06/25 03:19:03;;;;;;;5.53;4.18;;;;;;;19.42;83.76;100236.19;740115;1155;115548;-72
2022/06/25 03:34:06;;;;;;;9.35;4.83;;;;;;;19.65;83.72;100246.58;740214;1153;115435;-73
2022/06/25 03:49:08;;;;;;;4.53;3.83;;;;;;;19.97;83.42;100260.28;740693;1153;115701;-73
2022/06/25 04:04:11;;;;;;;6.00;4.10;;;;;;;20.38;83.06;100251.41;740400;1155;114951;-72
2022/06/25 04:19:13;;;;;;;4.68;4.23;;;;;;;20.85;82.35;100274.70;740269;1155;114656;-72
2022/06/25 04:34:15;;;;;;;4.47;4.07;;;;;;;21.33;81.96;100293.19;740200;1153;115497;-72
2022/06/25 04:49:18;;;;;;;14.38;8.38;;;;;;;21.96;81.17;100304.40;740365;1154;115448;-72
2022/06/25 05:04:20;;;;;;;5.83;4.23;;;;;;;22.63;78.86;100301.48;739912;1155;115237;-72
2022/06/25 05:19:23;;;;;;;6.03;4.38;;;;;;;23.20;77.78;100306.86;740091;1155;114791;-72
2022/06/25 05:34:25;;;;;;;3.90;3.50;;;;;;;23.73;75.32;100306.39;740886;1153;115076;-72
2022/06/25 05:49:27;;;;;;;3.97;3.47;;;;;;;24.23;73.72;100318.02;740690;1154;113980;-74
2022/06/25 06:04:29;;;;;;;7.05;3.73;;;;;;;24.65;73.46;100317.30;740253;1155;114382;-73
2022/06/25 06:19:32;;;;;;;4.97;3.07;;;;;;;25.07;72.44;100319.98;740187;1155;115565;-73
2022/06/25 06:34:34;;;;;;;4.65;3.33;;;;;;;25.70;71.04;100323.91;740723;1155;115422;-74
2022/06/25 06:49:38;;;;;;;3.13;2.67;;;;;;;26.30;69.83;100332.69;740672;1154;114040;-77
2022/06/25 07:04:40;;;;;;;2.60;2.40;;;;;;;26.87;69.11;100333.77;741115;1155;115325;-76
2022/06/25 07:19:43;;;;;;;2.40;2.15;;;;;;;27.22;66.40;100332.74;740603;1155;114055;-77
2022/06/25 07:34:45;;;;;;;4.08;2.30;;;;;;;28.08;65.77;100322.69;741167;1153;113998;-78
2022/06/25 08:05:09;;;;;;;3.73;2.10;;;;;;;29.43;60.14;100322.91;740963;1155;114621;-77
2022/06/25 08:20:11;;;;;;;2.40;2.20;;;;;;;30.05;58.70;100324.06;740686;1154;114537;-73
2022/06/25 08:35:14;;;;;;;1.78;1.68;;;;;;;30.44;56.12;100330.97;740087;1155;115238;-74
2022/06/25 08:50:21;;;;;;;2.93;1.83;;;;;;;31.10;55.07;100334.88;742164;1153;115489;-73
2022/06/25 09:05:34;;;;;;;2.25;1.83;;;;;;;31.47;53.52;100321.00;741268;1153;115028;-73
2022/06/25 09:20:58;;;;;;;2.40;1.80;;;;;;;31.54;52.85;100318.00;743060;1155;115320;-73
2022/06/25 09:36:01;;;;;;;4.65;2.55;;;;;;;31.85;51.79;100329.60;740305;1153;114892;-71
2022/06/25 09:51:04;;;;;;;4.83;3.13;;;;;;;32.41;50.88;100313.36;740375;1154;115738;-71
2022/06/25 10:06:07;;;;;;;2.40;2.00;;;;;;;32.67;50.56;100314.00;740251;1155;115732;-71
2022/06/25 10:21:10;;;;;;;3.13;1.75;;;;;;;33.07;50.43;100301.20;740883;1155;114973;-72
2022/06/25 10:36:14;;;;;;;1.68;1.58;;;;;;;33.18;49.73;100308.17;740576;1153;115464;-70
2022/06/25 10:51:33;;;;;;;1.88;1.60;;;;;;;33.26;48.61;100311.38;740143;1153;115405;-71
2022/06/25 11:06:38;;;;;;;2.93;1.93;;;;;;;33.53;48.09;100301.88;740928;1155;114733;-70
2022/06/25 11:21:43;;;;;;;2.18;1.73;;;;;;;33.71;48.68;100292.13;740479;1154;114482;-69
2022/06/25 11:37:00;;;;;;;2.23;1.78;;;;;;;33.82;47.89;100294.46;740614;1155;114773;-70
2022/06/25 11:52:04;;;;;;;1.80;1.70;;;;;;;34.48;47.30;100296.59;741022;1153;115822;-69
2022/06/25 12:07:18;;;;;;;3.08;1.58;;;;;;;34.52;47.49;100289.45;740837;1155;114109;-70
2022/06/25 12:22:26;;;;;;;1.83;1.60;;;;;;;34.21;46.67;100298.05;741418;1153;114558;-71
2022/06/25 12:37:31;;;;;;;1.60;1.50;;;;;;;34.54;46.54;100297.31;741248;1153;115613;-69
2022/06/25 12:52:39;;;;;;;1.95;1.58;;;;;;;34.81;45.47;100286.52;741034;1153;114794;-70
2022/06/25 13:07:42;;;;;;;2.08;1.73;;;;;;;34.82;46.05;100279.96;741805;1155;114778;-69
2022/06/25 13:22:46;;;;;;;1.80;1.70;;;;;;;34.85;45.70;100283.23;748429;1153;115357;-75
2022/06/25 13:37:48;;;;;;;1.50;1.38;;;;;;;34.99;45.49;100282.16;740915;1153;114484;-71
2022/06/25 13:52:50;;;;;;;2.03;1.73;;;;;;;35.37;46.03;100283.13;740721;1154;114736;-70
2022/06/25 14:07:53;;;;;;;4.68;1.78;;;;;;;34.42;46.23;100284.98;740511;1153;115274;-71
2022/06/25 14:22:55;;;;;;;3.73;1.83;;;;;;;34.39;46.66;100282.03;740431;1153;115404;-70
2022/06/25 14:53:18;;;;;;;3.20;1.80;;;;;;;33.52;46.14;100265.70;740624;1155;114789;-71
2022/06/25 15:08:24;;;;;;;3.43;2.30;;;;;;;33.75;46.14;100269.52;741342;1155;115494;-70
2022/06/25 15:23:27;;;;;;;2.93;1.80;;;;;;;34.09;46.26;100263.11;742633;1154;115309;-70
2022/06/25 15:38:30;;;;;;;3.28;2.10;;;;;;;34.02;46.65;100257.21;741548;1155;114682;-70
2022/06/25 15:53:33;;;;;;;3.13;1.70;;;;;;;33.66;46.67;100253.02;740673;1155;115008;-71
2022/06/25 16:08:36;;;;;;;3.10;2.03;;;;;;;33.28;47.12;100244.77;741042;1153;114158;-71
2022/06/25 16:23:39;;;;;;;3.27;1.90;;;;;;;33.09;47.46;100241.17;741744;1155;114159;-71
2022/06/25 16:38:41;;;;;;;2.67;2.00;;;;;;;32.44;48.56;100240.34;741561;1153;115923;-70
2022/06/25 16:53:44;;;;;;;4.33;2.08;;;;;;;31.56;50.94;100234.53;741929;1155;116080;-70
2022/06/25 17:08:46;;;;;;;2.30;1.75;;;;;;;31.20;51.71;100249.00;742159;1154;114861;-69
2022/06/25 17:23:49;;;;;;;2.78;2.25;;;;;;;31.03;52.78;100249.27;742037;1155;114662;-71
2022/06/25 17:38:52;;;;;;;16.05;10.88;;;;;;;31.20;53.07;100264.45;740567;1153;114966;-72
2022/06/25 17:53:54;;;;;;;7.00;5.55;;;;;;;31.07;53.41;100275.83;740427;1155;114358;-70
2022/06/25 18:08:58;;;;;;;8.03;5.90;;;;;;;30.56;54.56;100280.14;740415;1153;114971;-70
2022/06/25 18:24:00;;;;;;;4.85;2.48;;;;;;;29.97;56.36;100290.27;740970;1153;114156;-70
2022/06/25 18:39:04;;;;;;;12.15;11.05;;;;;;;29.22;58.22;100293.05;741136;1155;115204;-71
2022/06/25 18:54:07;;;;;;;4.83;2.90;;;;;;;28.24;61.14;100311.00;741306;1155;115830;-71
2022/06/25 19:09:10;;;;;;;7.50;2.80;;;;;;;27.17;62.78;100319.20;741420;1153;114771;-71
2022/06/25 19:24:13;;;;;;;4.33;3.00;;;;;;;26.64;63.90;100330.11;741178;1155;114395;-70
2022/06/25 19:39:16;;;;;;;8.20;5.03;;;;;;;26.18;64.85;100345.36;740694;1153;114586;-70
2022/06/25 19:54:18;;;;;;;10.13;5.03;;;;;;;26.01;66.38;100335.33;740656;1154;115572;-70
2022/06/25 20:09:21;;;;;;;7.15;4.50;;;;;;;25.64;67.47;100356.25;740528;1153;115770;-69
2022/06/25 20:24:23;;;;;;;6.18;3.95;;;;;;;25.32;68.41;100361.92;740352;1154;115323;-69
2022/06/25 20:39:26;;;;;;;6.00;4.43;;;;;;;24.80;69.61;100381.25;740265;1153;115668;-69
2022/06/25 20:54:28;;;;;;;8.23;4.63;;;;;;;24.64;70.57;100386.22;740612;1155;115942;-70
2022/06/25 21:09:31;;;;;;;10.85;6.25;;;;;;;24.18;71.84;100393.73;740896;1155;115591;-69
2022/06/25 21:24:33;;;;;;;7.95;5.48;;;;;;;23.90;73.35;100387.02;740993;1155;114816;-70
2022/06/25 21:39:35;;;;;;;6.68;5.43;;;;;;;23.76;74.34;100386.27;741150;1155;115327;-71
2022/06/25 21:54:37;;;;;;;6.90;5.13;;;;;;;23.55;75.56;100384.81;741320;1153;115480;-70
2022/06/25 22:09:40;;;;;;;21.08;9.45;;;;;;;23.50;76.74;100392.67;740948;1155;115594;-70
2022/06/25 22:24:42;;;;;;;9.65;6.98;;;;;;;23.32;77.59;100395.28;741332;1153;115477;-70
2022/06/25 22:39:44;;;;;;;9.50;6.03;;;;;;;23.23;78.02;100410.80;741086;1155;115161;-71
2022/06/25 22:54:47;;;;;;;12.03;6.23;;;;;;;23.02;78.26;100402.03;740898;1155;115483;-71
2022/06/25 23:09:49;;;;;;;11.03;5.53;;;;;;;22.91;78.55;100414.24;741139;1155;115679;-70
2022/06/25 23:24:52;;;;;;;7.58;5.25;;;;;;;22.87;79.15;100405.01;740991;1155;115607;-70
2022/06/25 23:39:54;;;;;;;5.33;4.17;;;;;;;22.92;78.61;100407.03;740510;1155;115598;-70
2022/06/25 23:54:57;;;;;;;5.80;4.28;;;;;;;22.87;78.36;100420.22;740060;1154;113422;-70
